Latest Coastal Weather Observations for Dum In Mirrie

IDD60701

Issued at 2:11 am CST Sunday 19 April 2015 (issued every 10 minutes, with the page automatically refreshed every 10 minutes)

About coastal observations | Map of coastal stations | Coastal observations for NT | Marine services | Other Formats
Station Details ID: 014277 Name: DUM IN MIRRIE AIRSTRIP Lat: -12.63 Lon: 130.37 Height: 3.5 m
Data from the previous 72 hours. | See also: Recent months at Dum In Mirrie
Date/Time
CST
Temp

°C
Wind Pressure Rain
since 9am
mm
Weather Cloud Vis
km
Sea
Height
m
Swell
Dir
 
Speed
knots
Gust
knots
hPa Trend Height
m
Period
s
Dir
19/02:00am 26.5 CALM 0 0 1010.8 - 0.0 - - - - - - -
19/01:30am 26.4 CALM 0 0 1011.2 - 0.0 - - - - - - -
19/01:00am 25.7 CALM 0 1 1011.2 - 0.0 - - - - - - -
19/12:30am 26.1 CALM 0 0 1011.4 - 0.0 - - - - - - -
19/12:00am 26.1 CALM 0 0 1011.5 - 0.0 - - - - - - -
 
Date/Time
CST
Temp

°C
Wind Pressure Rain
since 9am
mm
Weather Cloud Vis
km
Sea
Height
m
Swell
Dir
 
Speed
knots
Gust
knots
hPa Trend Height
m
Period
s
Dir
18/11:30pm 26.3 CALM 0 0 1011.6 - 0.0 - - - - - - -
18/11:00pm 26.4 CALM 0 0 1011.6 - 0.0 - - - - - - -
18/10:30pm 26.5 CALM 0 0 1011.5 - 0.0 - - - - - - -
18/10:00pm 26.6 NNW 1 2 1011.4 - 0.0 - - - - - - -
18/09:30pm 27.0 N 1 1 1011.3 - 0.0 - - - - - - -
18/09:00pm 27.2 NNW 1 2 1010.9 - 0.0 - - - - - - -
18/08:30pm 27.2 NNW 2 3 1010.5 - 0.0 - - - - - - -
18/08:00pm 27.0 NNW 1 2 1010.0 - 0.0 - - - - - - -
18/07:30pm 27.8 NW 1 2 1010.0 - 0.0 - - - - - - -
18/07:00pm 28.2 NW 2 3 1009.6 - 0.0 - - - - - - -
18/06:30pm 28.5 W 3 5 1009.4 - 0.0 - - - - - - -
18/06:00pm 28.8 WNW 2 5 1009.1 - 0.0 - - - - - - -
18/05:30pm 29.6 NW 4 6 1008.8 - 0.0 - - - - - - -
18/05:00pm 28.8 NW 3 6 1008.6 - 0.0 - - - - - - -
18/04:30pm 29.8 NNW 3 6 1008.1 - 0.0 - - - - - - -
18/04:00pm 29.4 NW 4 6 1008.1 - 0.0 - - - - - - -
18/03:30pm 28.8 NW 4 6 1008.5 - 0.0 - - - - - - -
18/03:00pm 28.0 WSW 7 12 1009.1 - 0.0 - - - - - - -
18/02:30pm 30.0 NNW 6 12 1009.1 - 0.0 - - - - - - -
18/02:00pm 30.0 N 7 13 1009.2 - 0.0 - - - - - - -
18/01:30pm 32.3 NE 5 9 1009.5 - 0.0 - - - - - - -
18/01:00pm 32.7 ENE 4 7 1010.1 - 0.0 - - - - - - -
18/12:30pm 32.3 NNE 5 10 1010.6 - 0.0 - - - - - - -
18/12:00pm 32.0 ESE 4 7 1011.0 - 0.0 - - - - - - -
18/11:30am 32.1 E 2 5 1011.6 - 0.0 - - - - - - -
18/11:00am 31.0 E 5 8 1012.1 - 0.0 - - - - - - -
18/10:30am 30.3 E 5 7 1012.4 - 0.0 - - - - - - -
18/10:00am 30.3 ESE 3 5 1012.4 - 0.0 - - - - - - -
18/09:30am 28.9 ESE 3 4 1012.2 - 0.0 - - - - - - -
18/09:00am 28.7 SE 2 4 1012.0 - 32.6 - - - - - - -
18/08:30am 27.6 SE 3 4 1011.7 - 32.6 - - - - - - -
18/08:00am 26.6 SE 1 3 1011.7 - 32.6 - - - - - - -
18/07:30am 26.6 SE 1 2 1011.5 - 32.6 - - - - - - -
18/07:00am 25.8 CALM 0 1 1010.9 - 32.6 - - - - - - -
18/06:30am 25.7 CALM 0 0 1010.5 - 32.6 - - - - - - -
18/06:00am 25.4 CALM 0 0 1010.2 - 32.6 - - - - - - -
18/05:30am 25.4 CALM 0 0 1010.1 - 32.6 - - - - - - -
18/05:00am 25.4 CALM 0 0 1009.9 - 32.6 - - - - - - -
18/04:30am 25.7 CALM 0 0 1010.0 - 32.6 - - - - - - -
18/04:00am 25.5 CALM 0 1 1010.0 - 32.6 - - - - - - -
18/03:30am 25.4 WSW 2 4 1010.2 - 32.6 - - - - - - -
18/03:00am 25.0 SSW 2 3 1010.3 - 32.6 Recent precip. - - - - - -
18/02:30am 24.9 SSW 1 3 1010.4 - 32.6 - - - - - - -
18/02:00am 24.8 WSW 4 7 1010.2 - 32.4 - - - - - - -
18/01:30am 25.9 E 7 17 1011.2 - 6.6 - - - - - - -
18/01:00am 26.7 NNW 3 7 1011.0 - 0.0 - - - - - - -
18/12:30am 27.4 NNW 6 10 1011.3 - 0.0 - - - - - - -
18/12:00am 28.9 NNW 2 4 1011.3 - 0.0 - - - - - - -
 
Date/Time
CST
Temp

°C
Wind Pressure Rain
since 9am
mm
Weather Cloud Vis
km
Sea
Height
m
Swell
Dir
 
Speed
knots
Gust
knots
hPa Trend Height
m
Period
s
Dir
17/11:30pm 28.1 NNE 2 3 1011.5 - 0.0 - - - - - - -
17/11:00pm 27.6 NE 2 3 1011.4 - 0.0 - - - - - - -
17/10:30pm 27.2 NNE 2 2 1011.5 - 0.0 - - - - - - -
17/10:00pm 27.5 NE 2 3 1011.4 - 0.0 - - - - - - -
17/09:30pm 28.3 NE 2 3 1011.1 - 0.0 - - - - - - -
17/09:00pm 28.6 CALM 0 1 1011.0 - 0.0 - - - - - - -
17/08:30pm 29.1 NE 3 5 1010.6 - 0.0 - - - - - - -
17/08:00pm 29.2 NNE 3 6 1010.0 - 0.0 - - - - - - -
17/07:30pm 29.2 NE 5 7 1009.4 - 0.0 - - - - - - -
17/07:00pm 29.4 NE 5 8 1009.1 - 0.0 - - - - - - -
17/06:30pm 29.7 NNE 6 11 1008.9 - 0.0 - - - - - - -
17/06:00pm 30.3 NNE 7 12 1008.7 - 0.0 - - - - - - -
17/05:30pm 30.9 NNE 8 13 1008.4 - 0.0 - - - - - - -
17/05:00pm 31.1 NNE 8 12 1008.4 - 0.0 - - - - - - -
17/04:30pm 31.8 N 8 13 1008.2 - 0.0 - - - - - - -
17/04:00pm 31.7 N 8 12 1008.1 - 0.0 - - - - - - -
17/03:30pm 31.7 N 8 12 1008.2 - 0.0 - - - - - - -
17/03:00pm 32.3 N 8 12 1008.6 - 0.0 - - - - - - -
17/02:30pm 32.7 N 7 12 1009.0 - 0.0 - - - - - - -
17/02:00pm 32.6 N 6 9 1009.5 - 0.0 - - - - - - -
17/01:30pm 33.0 E 5 8 1010.1 - 0.0 - - - - - - -
17/01:00pm 32.6 NE 6 10 1010.5 - 0.0 - - - - - - -
17/12:30pm 32.5 ENE 5 8 1011.1 - 0.0 - - - - - - -
17/12:00pm 32.3 ENE 7 12 1011.6 - 0.0 - - - - - - -
17/11:30am 31.7 E 6 11 1012.0 - 0.0 - - - - - - -
17/11:00am 31.2 ENE 7 11 1012.4 - 0.0 - - - - - - -
17/10:30am 30.8 E 6 11 1012.8 - 0.0 - - - - - - -
17/10:00am 30.3 E 6 10 1012.9 - 0.0 - - - - - - -
17/09:30am 28.7 ESE 3 5 1013.0 - 0.0 - - - - - - -
17/09:00am 28.4 ESE 3 6 1013.1 - 0.0 - - - - - - -
17/08:30am 27.6 SE 2 4 1012.9 - 0.0 - - - - - - -
17/08:00am 27.0 SE 2 4 1012.5 - 0.0 - - - - - - -
17/07:30am 26.3 SE 2 3 1012.3 - 0.0 - - - - - - -
17/07:00am 26.2 SE 1 2 1011.7 - 0.0 - - - - - - -
17/06:30am 26.2 SSE 1 2 1011.5 - 0.0 - - - - - - -
17/06:00am 26.5 ESE 2 3 1011.3 - 0.0 - - - - - - -
17/05:30am 26.7 E 3 4 1011.1 - 0.0 - - - - - - -
17/05:00am 26.9 ESE 3 5 1011.1 - 0.0 - - - - - - -
17/04:30am 27.3 ESE 3 5 1011.0 - 0.0 - - - - - - -
17/04:00am 27.7 E 2 4 1010.9 - 0.0 - - - - - - -
17/03:30am 28.2 ENE 3 6 1011.0 - 0.0 - - - - - - -
17/03:00am 28.1 ENE 3 5 1011.1 - 0.0 - - - - - - -
17/02:30am 27.9 NE 4 5 1011.5 - 0.0 - - - - - - -
17/02:00am 27.8 ENE 2 4 1011.7 - 0.0 - - - - - - -
17/01:30am 28.3 E 3 4 1012.2 - 0.0 - - - - - - -
17/01:00am 28.5 E 4 7 1012.7 - 0.0 - - - - - - -
17/12:30am 28.6 ENE 4 6 1012.9 - 0.0 - - - - - - -
17/12:00am 28.5 ENE 4 5 1013.1 - 0.0 - - - - - - -
 
Date/Time
CST
Temp

°C
Wind Pressure Rain
since 9am
mm
Weather Cloud Vis
km
Sea
Height
m
Swell
Dir
 
Speed
knots
Gust
knots
hPa Trend Height
m
Period
s
Dir
16/11:30pm 28.6 ENE 4 6 1013.3 - 0.0 - - - - - - -
16/11:00pm 28.5 ENE 3 7 1013.4 - 0.0 - - - - - - -
16/10:30pm 28.9 ENE 5 8 1013.5 - 0.0 - - - - - - -
16/10:00pm 29.0 ENE 4 7 1013.3 - 0.0 - - - - - - -
16/09:30pm 29.0 NE 4 7 1013.1 - 0.0 - - - - - - -
16/09:00pm 29.1 NE 3 5 1013.0 - 0.0 - - - - - - -
16/08:30pm 29.1 NE 5 8 1012.5 - 0.0 - - - - - - -
16/08:00pm 29.1 NE 5 8 1012.0 - 0.0 - - - - - - -
16/07:30pm 29.3 NE 4 7 1011.4 - 0.0 - - - - - - -
16/07:00pm 29.4 NNE 4 7 1011.0 - 0.0 - - - - - - -
16/06:30pm 29.7 NNE 5 9 1010.7 - 0.0 - - - - - - -
16/06:00pm 30.3 NNE 5 8 1010.5 - 0.0 - - - - - - -
16/05:30pm 30.4 NNE 5 9 1010.5 - 0.0 - - - - - - -
16/05:00pm 31.4 NNE 7 12 1010.3 - 0.0 - - - - - - -
16/04:30pm 31.5 NNE 7 13 1010.2 - 0.0 - - - - - - -
16/04:00pm 31.9 NNE 8 13 1010.3 - 0.0 - - - - - - -
16/03:30pm 32.1 N 8 13 1010.5 - 0.0 - - - - - - -
16/03:00pm 32.4 N 7 12 1010.7 - 0.0 - - - - - - -
16/02:30pm 33.3 NE 6 10 1011.1 - 0.0 - - - - - - -
16/02:00pm 33.3 E 6 11 1011.5 - 0.0 - - - - - - -
16/01:30pm 33.2 E 7 13 1011.9 - 0.0 - - - - - - -
16/01:00pm 32.4 ENE 8 13 1012.2 - 0.0 - - - - - - -
16/12:30pm 32.3 ENE 7 13 1012.8 - 0.0 - - - - - - -
16/12:00pm 31.4 E 10 15 1013.3 - 0.0 - - - - - - -
16/11:30am 31.7 E 8 12 1013.9 - 0.0 - - - - - - -
16/11:00am 31.2 E 8 12 1014.6 - 0.0 - - - - - - -
16/10:30am 30.9 ESE 7 11 1015.1 - 0.0 - - - - - - -
16/10:00am 30.2 E 8 13 1015.0 - 0.0 - - - - - - -
16/09:30am 29.9 E 8 13 1014.6 - 0.0 - - - - - - -
16/09:00am 29.1 E 5 8 1014.5 - 0.2 - - - - - - -
16/08:30am 28.6 E 7 11 1014.2 - 0.2 - - - - - - -
16/08:00am 28.3 ESE 5 7 1014.1 - 0.2 - - - - - - -
16/07:30am 27.7 ESE 3 5 1013.9 - 0.2 - - - - - - -
16/07:00am 27.3 ENE 4 7 1013.4 - 0.2 - - - - - - -
16/06:30am 27.4 ENE 5 11 1012.8 - 0.2 - - - - - - -
16/06:00am 27.4 E 5 9 1012.5 - 0.2 - - - - - - -
16/05:30am 27.3 E 4 10 1012.2 - 0.2 - - - - - - -
16/05:00am 27.4 ESE 3 7 1012.4 - 0.2 - - - - - - -
16/04:30am 27.9 E 5 8 1012.3 - 0.2 - - - - - - -
16/04:00am 28.1 ENE 6 9 1012.1 - 0.2 - - - - - - -
16/03:30am 28.3 ENE 7 11 1012.0 - 0.2 - - - - - - -
16/03:00am 28.3 ENE 5 9 1012.1 - 0.2 - - - - - - -
16/02:30am 28.5 ENE 5 8 1012.4 - 0.2 - - - - - - -

Other Formats:

Comma delimited format used in spreadsheet applications
http://www.bom.gov.au/fwo/IDD60701/IDD60701.94116.axf

JavaScript Object Notation format (JSON) in row-major order
http://www.bom.gov.au/fwo/IDD60701/IDD60701.94116.json